Flight Track Log - Related Links

Times and Time Zones

All times are in EDT time to prevent confusion due to time zone crossing. See the AMF200 flight status page for this flight to view local times or setup timezone preferences in your user account.

Time Position Orientation Groundspeed Altitude Reporting Facility
EDT Latitude Longitude Course Direction KTS MPH feet Rate Location/Type
Fri 06:30:35 AM 38.4145 -122.2308 359° North  Level FlightAware Approximate
Fri 06:31:35 AM 38.4554 -122.2314 359° North  Level FlightAware Approximate
Fri 06:32:35 AM 38.4963 -122.2320 359° North  Level FlightAware Approximate
Fri 06:33:35 AM 38.5407 -122.2326 359° North  Level FlightAware Approximate
Fri 06:34:35 AM 38.5850 -122.2333 359° North  Level FlightAware Approximate
Fri 06:35:35 AM 38.6350 -122.2340 359° North  Level FlightAware Approximate
Fri 06:36:35 AM 38.6849 -122.2347 359° North  Level FlightAware Approximate
Fri 06:37:35 AM 38.7349 -122.2355 359° North  Level FlightAware Approximate
Fri 06:38:35 AM 38.7848 -122.2362 358° North  Level FlightAware Approximate
Fri 06:39:35 AM 38.8296 -122.2380 358° North  Level FlightAware Approximate
Fri 06:40:35 AM 38.8743 -122.2398 358° North  Level FlightAware Approximate
Fri 06:41:35 AM 38.9246 -122.2418 358° North  Level FlightAware Approximate
Fri 06:42:35 AM 38.9748 -122.2438 358° North  Level FlightAware Approximate
Fri 06:43:35 AM 39.0251 -122.2458 358° North  Level FlightAware Approximate
Fri 06:44:35 AM 39.0753 -122.2477 358° North  Level FlightAware Approximate
Fri 06:45:35 AM 39.1256 -122.2497 358° North  Level FlightAware Approximate
Fri 06:46:35 AM 39.1758 -122.2517 358° North  Level FlightAware Approximate
Fri 06:47:35 AM 39.2261 -122.2538 358° North  Level FlightAware Approximate
Fri 06:48:35 AM 39.2763 -122.2558 41° Northeast  Level FlightAware Approximate
Fri 06:49:35 AM 39.3119 -122.2163 358° North  Level FlightAware Approximate
Fri 06:50:35 AM 39.3621 -122.2188 358° North  Level FlightAware Approximate
Fri 06:51:35 AM 39.4123 -122.2214 358° North  Level FlightAware Approximate
Fri 06:52:35 AM 39.4626 -122.2240 358° North  Level FlightAware Approximate
Fri 06:53:35 AM 39.5128 -122.2266 358° North  Level FlightAware Approximate
Fri 06:54:35 AM 39.5631 -122.2292 358° North  Level FlightAware Approximate
Fri 06:55:35 AM 39.6133 -122.2319 358° North  Level FlightAware Approximate
Fri 06:56:35 AM 39.6636 -122.2345 358° North  Level FlightAware Approximate
Fri 06:57:35 AM 39.7138 -122.2371 358° North  Level FlightAware Approximate
Fri 06:58:35 AM 39.7640 -122.2397 358° North  Level FlightAware Approximate
Fri 06:59:35 AM 39.8143 -122.2424 358° North  Level FlightAware Approximate
Fri 07:00:35 AM 39.8645 -122.2452 27° Northeast  Level FlightAware Approximate
Fri 07:01:35 AM 39.9047 -122.2182 357° North  Level FlightAware Approximate
Fri 07:02:35 AM 39.9549 -122.2213 357° North  Level FlightAware Approximate
Fri 07:03:35 AM 40.0051 -122.2244 357° North  Level FlightAware Approximate
Fri 07:04:35 AM 40.0554 -122.2275 357° North  Level FlightAware Approximate
Fri 07:05:35 AM 40.1056 -122.2307 357° North  Level FlightAware Approximate
Fri 07:06:35 AM 40.1558 -122.2338 357° North  Level FlightAware Approximate
Fri 07:07:35 AM 40.2060 -122.2369 357° North  Level FlightAware Approximate
Fri 07:08:35 AM 40.2562 -122.2400 357° North  Level FlightAware Approximate
Fri 07:09:35 AM 40.3064 -122.2432 353° North  Level FlightAware Approximate
Fri 07:10:35 AM 40.3564 -122.2512 357° North  Level FlightAware Approximate
Fri 07:11:35 AM 40.4066 -122.2542 357° North  Level FlightAware Approximate
Fri 07:12:35 AM 40.4568 -122.2573 357° North  Level FlightAware Approximate
Fri 07:13:35 AM 40.5070 -122.2604 337° Northwest  Level FlightAware Approximate
Fri 07:14:35 AM 40.5520 -122.2853 358° North  Level FlightAware Approximate
Fri 07:15:35 AM 40.6022 -122.2881 358° North  Level FlightAware Approximate
Fri 07:16:35 AM 40.6525 -122.2909 358° North  Level FlightAware Approximate
Fri 07:17:35 AM 40.7027 -122.2937 358° North  Level FlightAware Approximate
Fri 07:18:35 AM 40.7529 -122.2965 358° North  Level FlightAware Approximate
Fri 07:19:35 AM 40.8032 -122.2993 358° North  Level FlightAware Approximate
Fri 07:20:35 AM 40.8534 -122.3021 358° North  Level FlightAware Approximate
Fri 07:21:35 AM 40.9036 -122.3049 358° North  Level FlightAware Approximate
Fri 07:22:35 AM 40.9539 -122.3078 337° Northwest  Level FlightAware Approximate
Fri 07:23:35 AM 41.0003 -122.3333 358° North  Level FlightAware Approximate
Fri 07:24:35 AM 41.0505 -122.3358 358° North  Level FlightAware Approximate
Fri 07:25:35 AM 41.1007 -122.3383 358° North  Level FlightAware Approximate
Fri 07:26:35 AM 41.1510 -122.3408 358° North  Level FlightAware Approximate
Fri 07:27:35 AM 41.2012 -122.3433 358° North  Level FlightAware Approximate
Fri 07:28:35 AM 41.2515 -122.3458 358° North  Level FlightAware Approximate
Fri 07:29:35 AM 41.3017 -122.3483 358° North  Level FlightAware Approximate
Fri 07:30:35 AM 41.3520 -122.3509 358° North  Level FlightAware Approximate
Fri 07:31:35 AM 41.4022 -122.3536 358° North  Level FlightAware Approximate
Fri 07:32:35 AM 41.4524 -122.3562 358° North  Level FlightAware Approximate
Fri 07:33:35 AM 41.5027 -122.3588 358° North  Level FlightAware Approximate
Fri 07:34:35 AM 41.5529 -122.3615 358° North  Level FlightAware Approximate
Fri 07:35:35 AM 41.6031 -122.3641 358° North  Level FlightAware Approximate
Fri 07:36:35 AM 41.6534 -122.3667 358° North  Level FlightAware Approximate
Fri 07:37:35 AM 41.7036 -122.3694 358° North  Level FlightAware Approximate
Fri 07:38:35 AM 41.7539 -122.3720 358° North  Level FlightAware Approximate
Fri 07:39:35 AM 41.8041 -122.3747 358° North  Level FlightAware Approximate
Fri 07:40:35 AM 41.8544 -122.3773 358° North  Level FlightAware Approximate
Fri 07:41:35 AM 41.9046 -122.3800 27° Northeast  Level FlightAware Approximate
Fri 07:42:35 AM 41.9472 -122.3509 357° North  Level FlightAware Approximate
Fri 07:43:35 AM 41.9974 -122.3540 357° North  Level FlightAware Approximate
Fri 07:44:35 AM 42.0476 -122.3571 357° North  Level FlightAware Approximate
Fri 07:45:35 AM 42.0979 -122.3602 357° North  Level FlightAware Approximate
Fri 07:46:35 AM 42.1481 -122.3633 357° North  Level FlightAware Approximate
Fri 07:47:35 AM 42.1983 -122.3664 357° North  Level FlightAware Approximate
Fri 07:48:35 AM 42.2486 -122.3696 357° North  Level FlightAware Approximate
Fri 07:49:35 AM 42.2988 -122.3727 357° North  Level FlightAware Approximate
Fri 07:50:35 AM 42.3490 -122.3758 357° North  Level FlightAware Approximate
Fri 07:51:35 AM 42.3993 -122.3790 357° North  Level FlightAware Approximate
Fri 07:52:35 AM 42.4495 -122.3821 357° North  Level FlightAware Approximate
Fri 07:53:35 AM 42.4997 -122.3853 357° North  Level FlightAware Approximate
Fri 07:54:35 AM 42.5499 -122.3884 357° North  Level FlightAware Approximate
Fri 07:55:35 AM 42.6002 -122.3916 357° North  Level FlightAware Approximate
Fri 07:56:35 AM 42.6504 -122.3947 356° North  Level FlightAware Approximate
Fri 07:57:35 AM 42.7005 -122.4000 357° North  Level FlightAware Approximate
Fri 07:58:35 AM 42.7508 -122.4032 357° North  Level FlightAware Approximate
Fri 07:59:35 AM 42.8010 -122.4063 357° North  Level FlightAware Approximate
Fri 08:00:35 AM 42.8512 -122.4095 357° North  Level FlightAware Approximate
Fri 08:01:35 AM 42.9015 -122.4126 357° North  Level FlightAware Approximate
Fri 08:02:35 AM 42.9517 -122.4158 357° North  Level FlightAware Approximate
Fri 08:03:35 AM 43.0019 -122.4190 357° North  Level FlightAware Approximate
Fri 08:04:35 AM 43.0521 -122.4221 357° North  Level FlightAware Approximate
Fri 08:05:35 AM 43.1024 -122.4253 357° North  Level FlightAware Approximate
Fri 08:06:35 AM 43.1526 -122.4285 357° North  Level FlightAware Approximate
Fri 08:07:35 AM 43.2028 -122.4317 357° North  Level FlightAware Approximate
Fri 08:08:35 AM 43.2531 -122.4349 357° North  Level FlightAware Approximate
Fri 08:09:35 AM 43.3033 -122.4381 357° North  Level FlightAware Approximate
Fri 08:10:35 AM 43.3535 -122.4413 357° North  Level FlightAware Approximate
Fri 08:11:35 AM 43.4037 -122.4445 357° North  Level FlightAware Approximate
Fri 08:12:35 AM 43.4540 -122.4477 357° North  Level FlightAware Approximate
Fri 08:13:35 AM 43.5042 -122.4509 357° North  Level FlightAware Approximate
Fri 08:14:35 AM 43.5544 -122.4541 357° North  Level FlightAware Approximate
Fri 08:15:35 AM 43.6046 -122.4574 357° North  Level FlightAware Approximate
Fri 08:16:35 AM 43.6549 -122.4606 357° North  Level FlightAware Approximate
Fri 08:17:35 AM 43.7051 -122.4638 357° North  Level FlightAware Approximate
Fri 08:18:35 AM 43.7553 -122.4671 357° North  Level FlightAware Approximate
Fri 08:19:35 AM 43.8055 -122.4703 357° North  Level FlightAware Approximate
Fri 08:20:35 AM 43.8557 -122.4736 357° North  Level FlightAware Approximate
Fri 08:21:35 AM 43.9060 -122.4769 354° North  Level FlightAware Approximate
Fri 08:22:35 AM 43.9558 -122.4847 357° North  Level FlightAware Approximate
Fri 08:23:35 AM 44.0061 -122.4879 357° North  Level FlightAware Approximate
Fri 08:24:35 AM 44.0563 -122.4910 357° North  Level FlightAware Approximate
Fri 08:25:35 AM 44.1065 -122.4941 357° North  Level FlightAware Approximate
Fri 08:26:35 AM 44.1567 -122.4973 357° North  Level FlightAware Approximate
Fri 08:27:35 AM 44.2070 -122.5004 357° North  Level FlightAware Approximate
Fri 08:28:35 AM 44.2572 -122.5035 357° North  Level FlightAware Approximate
Fri 08:29:35 AM 44.3074 -122.5067 357° North  Level FlightAware Approximate
Fri 08:30:35 AM 44.3577 -122.5099 357° North  Level FlightAware Approximate
Fri 08:31:35 AM 44.4079 -122.5130 357° North  Level FlightAware Approximate
Fri 08:32:35 AM 44.4581 -122.5162 360° North  Level FlightAware Approximate
Fri 08:33:35 AM 44.5084 -122.5167 360° North  Level FlightAware Approximate
Fri 08:34:35 AM 44.5587 -122.5167 357° North  Level FlightAware Approximate
Fri 08:35:35 AM 44.6089 -122.5202 359° North  Level FlightAware Approximate
Fri 08:36:35 AM 44.6587 -122.5209 357° North  Level FlightAware Approximate
Fri 08:37:35 AM 44.7089 -122.5245 357° North  Level FlightAware Approximate
Fri 08:38:35 AM 44.7591 -122.5282 354° North  Level FlightAware Approximate
Fri 08:39:35 AM 44.8091 -122.5359 357° North  Level FlightAware Approximate
Fri 08:40:35 AM 44.8593 -122.5393 357° North  Level FlightAware Approximate
Fri 08:41:35 AM 44.9095 -122.5427 354° North  Level FlightAware Approximate
Fri 08:42:35 AM 44.9594 -122.5500 359° North  Level FlightAware Approximate
Fri 08:43:35 AM 45.0097 -122.5510 357° North  Level FlightAware Approximate
Fri 08:44:35 AM 45.0599 -122.5543 357° North  Level FlightAware Approximate
Fri 08:45:35 AM 45.1101 -122.5576 357° North  Level FlightAware Approximate
Fri 08:46:35 AM 45.1604 -122.5609 355° North  Level FlightAware Approximate
Fri 08:47:35 AM 45.2094 -122.5667 358° North  Level FlightAware Approximate
Fri 08:48:35 AM 45.2597 -122.5695 North  Level FlightAware Approximate
Fri 08:49:35 AM 45.3099 -122.5667 North  Level FlightAware Approximate

Login

Don't have an account? Register now (free) for customized features, flight alerts, and more!